createdAt,value
2023-02-06T00:00:06.834Z,102207.06
2023-02-06T00:03:09.911Z,102190.84
2023-02-06T00:06:12.647Z,102189.84
2023-02-06T00:09:15.550Z,102190.56
2023-02-06T00:12:18.300Z,102193.84
2023-02-06T00:15:21.043Z,102195.56
2023-02-06T00:18:23.881Z,102188.72
2023-02-06T00:21:28.423Z,102187.94
2023-02-06T00:24:31.137Z,102188.84
2023-02-06T00:27:34.031Z,102200.97
2023-02-06T00:30:37.123Z,102207.75
2023-02-06T00:33:40.079Z,102201.75
2023-02-06T00:36:42.817Z,102214.38
2023-02-06T00:39:45.576Z,102213.69
2023-02-06T00:42:48.505Z,102218.66
2023-02-06T00:45:53.030Z,102217.09
2023-02-06T00:48:55.771Z,102217.25
2023-02-06T00:51:58.577Z,102218.16
2023-02-06T00:55:01.391Z,102216.50
2023-02-06T00:58:05.232Z,102224.91
2023-02-06T01:01:08.197Z,102212.97
2023-02-06T01:04:11.219Z,102229.91
2023-02-06T01:07:13.984Z,102229.00
2023-02-06T01:10:16.872Z,102231.81
2023-02-06T01:13:20.336Z,102233.56
2023-02-06T01:16:25.012Z,102234.50
2023-02-06T01:19:28.792Z,102238.63
2023-02-06T01:22:35.035Z,102236.16
2023-02-06T01:25:38.006Z,102243.00
2023-02-06T01:28:43.707Z,102226.25
2023-02-06T01:31:46.674Z,102234.59
2023-02-06T01:34:49.506Z,102228.63
2023-02-06T01:37:52.298Z,102240.34
2023-02-06T01:40:59.518Z,102228.44
2023-02-06T01:44:17.719Z,102224.28
2023-02-06T01:47:20.485Z,102226.88
2023-02-06T01:50:24.134Z,102203.50
2023-02-06T01:53:27.134Z,102214.41
2023-02-06T01:56:34.265Z,102198.34
2023-02-06T01:59:41.009Z,102219.47
2023-02-06T02:02:48.542Z,102213.59
2023-02-06T02:05:53.944Z,102214.28
2023-02-06T02:08:58.481Z,102212.56
2023-02-06T02:12:02.325Z,102218.56
2023-02-06T02:15:05.887Z,102210.09
2023-02-06T02:18:20.642Z,102208.38
2023-02-06T02:21:32.487Z,102220.94
2023-02-06T02:25:04.251Z,102217.56
2023-02-06T02:28:25.583Z,102214.16
2023-02-06T02:31:31.560Z,102213.22
2023-02-06T02:34:59.203Z,102229.28
2023-02-06T02:38:14.557Z,102217.44
2023-02-06T02:41:21.348Z,102213.97
2023-02-06T02:44:52.989Z,102216.44
2023-02-06T02:48:15.529Z,102218.97
2023-02-06T02:51:18.796Z,102230.78
2023-02-06T02:54:21.714Z,102239.16
2023-02-06T02:57:29.144Z,102239.97
2023-02-06T03:00:37.303Z,102240.84
2023-02-06T03:03:42.245Z,102235.81
2023-02-06T03:07:09.825Z,102221.50
2023-02-06T03:10:28.646Z,102234.06
2023-02-06T03:13:40.106Z,102233.31
2023-02-06T03:16:47.907Z,102234.25
2023-02-06T03:19:56.915Z,102245.16
2023-02-06T03:23:03.112Z,102248.75
2023-02-06T03:26:10.118Z,102248.00
2023-02-06T03:29:16.774Z,102260.66
2023-02-06T03:32:25.238Z,102251.28
2023-02-06T03:35:33.192Z,102253.88
2023-02-06T03:38:36.071Z,102261.41
2023-02-06T03:41:40.087Z,102234.53
2023-02-06T03:44:49.823Z,102246.22
2023-02-06T03:47:55.275Z,102251.31
2023-02-06T03:51:02.956Z,102250.59
2023-02-06T03:54:07.644Z,102247.19
2023-02-06T03:57:14.145Z,102247.09
2023-02-06T04:00:17.499Z,102253.84
2023-02-06T04:03:21.611Z,102246.22
2023-02-06T04:06:24.984Z,102238.88
2023-02-06T04:09:27.823Z,102240.44
2023-02-06T04:12:31.479Z,102242.94
2023-02-06T04:15:34.931Z,102246.28
2023-02-06T04:18:37.836Z,102237.06
2023-02-06T04:21:40.638Z,102230.34
2023-02-06T04:24:43.441Z,102242.31
2023-02-06T04:27:46.193Z,102239.72
2023-02-06T04:30:49.124Z,102228.97
2023-02-06T04:33:52.109Z,102255.13
2023-02-06T04:36:55.394Z,102245.16
2023-02-06T04:39:58.213Z,102251.19
2023-02-06T04:43:00.952Z,102236.13
2023-02-06T04:46:03.829Z,102245.41
2023-02-06T04:49:06.611Z,102256.50
2023-02-06T04:52:09.336Z,102247.19
2023-02-06T04:55:12.077Z,102251.38
2023-02-06T04:58:17.316Z,102243.00
2023-02-06T05:01:20.937Z,102252.16
2023-02-06T05:04:23.697Z,102246.09
2023-02-06T05:07:26.472Z,102253.78
2023-02-06T05:10:29.948Z,102263.81
2023-02-06T05:13:36.508Z,102261.56
2023-02-06T05:16:39.407Z,102263.22
2023-02-06T05:19:42.542Z,102261.38
2023-02-06T05:22:45.529Z,102261.28
2023-02-06T05:25:48.304Z,102267.09
2023-02-06T05:28:51.183Z,102274.56
2023-02-06T05:31:54.232Z,102276.28
2023-02-06T05:34:56.955Z,102274.56
2023-02-06T05:37:59.632Z,102271.94
2023-02-06T05:41:02.406Z,102277.88
2023-02-06T05:44:05.321Z,102282.03
2023-02-06T05:47:08.071Z,102288.69
2023-02-06T05:50:10.955Z,102297.88
2023-02-06T05:53:14.062Z,102298.56
2023-02-06T05:56:16.811Z,102296.91
2023-02-06T05:59:20.590Z,102297.66
2023-02-06T06:02:23.709Z,102301.13
2023-02-06T06:05:26.583Z,102312.91
2023-02-06T06:08:29.404Z,102308.75
2023-02-06T06:11:33.552Z,102318.88
2023-02-06T06:14:36.281Z,102319.69
2023-02-06T06:17:39.273Z,102312.91
2023-02-06T06:20:42.338Z,102318.78
2023-02-06T06:23:45.380Z,102305.19
2023-02-06T06:26:48.224Z,102306.00
2023-02-06T06:29:51.151Z,102313.53
2023-02-06T06:32:53.984Z,102321.06
2023-02-06T06:35:56.873Z,102316.75
2023-02-06T06:38:59.878Z,102318.28
2023-02-06T06:42:04.555Z,102313.09
2023-02-06T06:45:07.780Z,102307.09
2023-02-06T06:48:10.605Z,102310.31
2023-02-06T06:51:13.592Z,102308.50
2023-02-06T06:54:16.852Z,102302.78
2023-02-06T06:57:20.988Z,102305.25
2023-02-06T07:00:28.616Z,102296.69
2023-02-06T07:03:31.585Z,102289.03
2023-02-06T07:06:34.946Z,102292.97
2023-02-06T07:09:37.715Z,102282.88
2023-02-06T07:12:40.524Z,102293.03
2023-02-06T07:15:43.823Z,102285.03
2023-02-06T07:18:46.733Z,102281.50
2023-02-06T07:21:50.172Z,102282.38
2023-02-06T07:24:54.473Z,102293.13
2023-02-06T07:27:57.401Z,102293.75
2023-02-06T07:31:05.145Z,102291.31
2023-02-06T07:34:07.965Z,102300.53
2023-02-06T07:37:10.954Z,102296.03
2023-02-06T07:40:13.878Z,102306.66
2023-02-06T07:43:16.913Z,102300.91
2023-02-06T07:46:21.919Z,102309.94
2023-02-06T07:49:25.112Z,102300.25
2023-02-06T07:52:27.919Z,102302.25
2023-02-06T07:55:30.727Z,102305.31
2023-02-06T07:58:33.466Z,102308.47
2023-02-06T08:01:36.701Z,102301.38
2023-02-06T08:04:39.984Z,102299.72
2023-02-06T08:07:42.775Z,102299.72
2023-02-06T08:10:45.703Z,102311.34
2023-02-06T08:13:48.801Z,102307.81
2023-02-06T08:16:52.018Z,102309.59
2023-02-06T08:19:54.770Z,102306.19
2023-02-06T08:22:57.518Z,102295.13
2023-02-06T08:26:12.530Z,102286.66
2023-02-06T08:29:15.336Z,102301.91
2023-02-06T08:32:18.291Z,102292.31
2023-02-06T08:35:22.022Z,102297.91
2023-02-06T08:38:24.828Z,102289.31
2023-02-06T08:41:30.677Z,102310.78
2023-02-06T08:44:33.516Z,102308.31
2023-02-06T08:47:36.208Z,102309.81
2023-02-06T08:50:39.628Z,102313.81
2023-02-06T08:53:42.381Z,102324.50
2023-02-06T08:56:45.964Z,102300.97
2023-02-06T08:59:49.763Z,102322.22
2023-02-06T09:02:53.690Z,102302.91
2023-02-06T09:06:09.688Z,102327.19
2023-02-06T09:09:13.568Z,102324.00
2023-02-06T09:12:16.682Z,102306.66
2023-02-06T09:15:19.445Z,102309.97
2023-02-06T09:18:22.182Z,102317.38
2023-02-06T09:21:26.282Z,102315.81
2023-02-06T09:24:30.409Z,102329.84
2023-02-06T09:27:33.305Z,102312.25
2023-02-06T09:30:36.168Z,102325.78
2023-02-06T09:33:40.273Z,102326.53
2023-02-06T09:36:43.110Z,102330.66
2023-02-06T09:39:46.005Z,102336.72
2023-02-06T09:42:48.787Z,102335.56
2023-02-06T09:45:59.818Z,102334.78
2023-02-06T09:49:11.303Z,102340.81
2023-02-06T09:52:32.066Z,102332.91
2023-02-06T09:55:35.165Z,102332.88
2023-02-06T09:58:45.160Z,102328.81
2023-02-06T10:02:38.408Z,102336.78
2023-02-06T10:06:27.160Z,102332.19
2023-02-06T10:09:47.543Z,102332.97
2023-02-06T10:13:06.610Z,102311.09
2023-02-06T10:16:30.552Z,102319.50
2023-02-06T10:19:51.727Z,102297.75
2023-02-06T10:23:13.093Z,102287.66
2023-02-06T10:26:18.397Z,102306.53
2023-02-06T10:29:26.712Z,102296.50
2023-02-06T10:32:41.672Z,102283.09
2023-02-06T10:36:10.495Z,102273.16
2023-02-06T10:39:44.265Z,102275.78
2023-02-06T10:42:52.252Z,102281.44
2023-02-06T10:46:20.672Z,102266.28
2023-02-06T10:49:34.111Z,102263.34
2023-02-06T10:52:37.588Z,102271.13
2023-02-06T10:55:55.900Z,102252.47
2023-02-06T10:59:28.928Z,102237.59
2023-02-06T11:02:47.487Z,102243.44
2023-02-06T11:05:52.714Z,102232.97
2023-02-06T11:08:56.394Z,102241.38
2023-02-06T11:12:00.973Z,102248.97
2023-02-06T11:15:27.507Z,102238.38
2023-02-06T11:18:35.161Z,102231.59
2023-02-06T11:21:51.152Z,102230.97
2023-02-06T11:25:05.149Z,102226.47
2023-02-06T11:28:15.241Z,102215.38
2023-02-06T11:31:20.483Z,102210.47
2023-02-06T11:34:51.155Z,102224.75
2023-02-06T11:42:00.231Z,102214.19
2023-02-06T11:45:23.659Z,102213.59
2023-02-06T11:48:39.744Z,102202.09
2023-02-06T11:51:48.740Z,102196.81
2023-02-06T11:54:55.456Z,102197.16
2023-02-06T11:58:14.105Z,102197.88
2023-02-06T12:01:21.412Z,102202.97
2023-02-06T12:04:34.553Z,102189.91
2023-02-06T12:07:54.377Z,102181.06
2023-02-06T12:11:05.946Z,102193.72
2023-02-06T12:14:19.313Z,102191.91
2023-02-06T12:17:36.682Z,102175.78
2023-02-06T12:20:53.364Z,102166.50
2023-02-06T12:24:01.475Z,102175.44
2023-02-06T12:27:18.203Z,102170.56
2023-02-06T12:30:36.690Z,102175.03
2023-02-06T12:33:46.481Z,102159.03
2023-02-06T12:37:00.414Z,102152.88
2023-02-06T12:40:03.787Z,102151.09
2023-02-06T12:43:13.007Z,102163.41
2023-02-06T12:46:26.227Z,102168.56
2023-02-06T12:49:37.034Z,102148.31
2023-02-06T12:52:48.375Z,102166.81
2023-02-06T12:56:00.623Z,102154.84
2023-02-06T12:59:09.214Z,102161.50
2023-02-06T13:02:48.811Z,102147.56
2023-02-06T13:06:03.406Z,102151.41
2023-02-06T13:09:07.867Z,102143.84
2023-02-06T13:12:21.697Z,102152.59
2023-02-06T13:15:42.428Z,102149.38
2023-02-06T13:18:52.611Z,102142.34
2023-02-06T13:22:10.701Z,102154.78
2023-02-06T13:25:31.816Z,102151.31
2023-02-06T13:28:39.284Z,102148.25
2023-02-06T13:31:42.532Z,102149.94
2023-02-06T13:34:45.300Z,102151.41
2023-02-06T13:37:50.439Z,102156.97
2023-02-06T13:41:14.975Z,102159.81
2023-02-06T13:44:36.915Z,102153.81
2023-02-06T13:48:05.857Z,102156.63
2023-02-06T13:51:26.967Z,102150.56
2023-02-06T13:54:53.518Z,102151.31
2023-02-06T13:58:14.896Z,102141.59
2023-02-06T14:01:20.890Z,102135.72
2023-02-06T14:04:31.359Z,102141.13
2023-02-06T14:07:48.268Z,102143.69
2023-02-06T14:11:27.180Z,102139.56
2023-02-06T14:14:52.114Z,102136.13
2023-02-06T14:18:36.313Z,102139.38
2023-02-06T14:21:57.154Z,102141.44
2023-02-06T14:25:05.869Z,102140.44
2023-02-06T14:28:36.527Z,102141.75
2023-02-06T14:32:06.493Z,102137.00
2023-02-06T14:35:44.653Z,102141.22
2023-02-06T14:38:59.265Z,102140.41
2023-02-06T14:42:31.109Z,102146.91
2023-02-06T14:46:04.112Z,102142.69
2023-02-06T14:49:17.473Z,102137.22
2023-02-06T14:52:26.274Z,102142.97
2023-02-06T14:55:37.219Z,102148.13
2023-02-06T14:58:40.180Z,102142.75
2023-02-06T15:01:46.079Z,102149.31
2023-02-06T15:04:48.898Z,102148.06
2023-02-06T15:07:59.396Z,102152.50
2023-02-06T15:11:06.434Z,102157.88
2023-02-06T15:14:22.085Z,102164.13
2023-02-06T15:17:29.089Z,102157.00
2023-02-06T15:20:43.477Z,102168.97
2023-02-06T15:23:46.366Z,102181.13
2023-02-06T15:27:10.277Z,102177.19
2023-02-06T15:30:26.032Z,102174.16
2023-02-06T15:33:32.923Z,102170.22
2023-02-06T15:36:38.745Z,102184.72
2023-02-06T15:39:42.338Z,102174.69
2023-02-06T15:42:47.529Z,102174.13
2023-02-06T15:45:52.135Z,102185.22
2023-02-06T15:48:57.536Z,102179.88
2023-02-06T15:52:00.489Z,102188.19
2023-02-06T15:55:04.914Z,102191.81
2023-02-06T15:58:07.765Z,102188.88
2023-02-06T16:01:18.581Z,102186.44
2023-02-06T16:04:33.852Z,102195.88
2023-02-06T16:07:36.949Z,102193.47
2023-02-06T16:10:40.877Z,102199.44
2023-02-06T16:13:46.046Z,102202.16
2023-02-06T16:17:18.096Z,102216.69
2023-02-06T16:20:39.431Z,102209.13
2023-02-06T16:23:49.617Z,102211.69
2023-02-06T16:26:52.689Z,102214.34
2023-02-06T16:29:57.546Z,102221.97
2023-02-06T16:33:12.459Z,102219.72
2023-02-06T16:36:17.889Z,102226.00
2023-02-06T16:39:21.990Z,102229.59
2023-02-06T16:42:33.468Z,102229.50
2023-02-06T16:45:36.330Z,102228.06
2023-02-06T16:48:39.100Z,102228.38
2023-02-06T16:51:43.749Z,102230.78
2023-02-06T16:54:47.256Z,102218.44
2023-02-06T16:57:56.610Z,102237.25
2023-02-06T17:00:59.782Z,102240.56
2023-02-06T17:04:02.541Z,102248.31
2023-02-06T17:07:06.169Z,102244.31
2023-02-06T17:10:12.239Z,102252.72
2023-02-06T17:13:20.639Z,102245.19
2023-02-06T17:16:25.465Z,102249.59
2023-02-06T17:19:28.250Z,102259.75
2023-02-06T17:22:31.081Z,102266.69
2023-02-06T17:25:33.976Z,102257.41
2023-02-06T17:28:37.536Z,102260.03
2023-02-06T17:31:40.486Z,102259.41
2023-02-06T17:34:43.347Z,102258.53
2023-02-06T17:37:46.826Z,102266.97
2023-02-06T17:40:50.359Z,102260.56
2023-02-06T17:43:53.311Z,102258.13
2023-02-06T17:46:56.078Z,102255.78
2023-02-06T17:49:58.969Z,102255.78
2023-02-06T17:53:03.000Z,102255.06
2023-02-06T17:56:07.359Z,102255.34
2023-02-06T17:59:10.434Z,102252.00
2023-02-06T18:02:14.857Z,102257.16
2023-02-06T18:05:17.952Z,102253.91
2023-02-06T18:08:20.765Z,102261.59
2023-02-06T18:11:23.667Z,102264.16
2023-02-06T18:14:26.515Z,102263.25
2023-02-06T18:17:29.712Z,102272.63
2023-02-06T18:20:33.065Z,102275.22
2023-02-06T18:23:36.283Z,102284.47
2023-02-06T18:26:39.457Z,102277.69
2023-02-06T18:29:50.355Z,102285.13
2023-02-06T18:32:53.615Z,102282.50
2023-02-06T18:35:56.742Z,102291.78
2023-02-06T18:39:00.193Z,102292.59
2023-02-06T18:42:22.160Z,102286.09
2023-02-06T18:45:31.258Z,102287.00
2023-02-06T18:48:34.370Z,102284.56
2023-02-06T18:51:37.593Z,102283.00
2023-02-06T18:54:40.386Z,102279.59
2023-02-06T18:57:43.402Z,102275.56
2023-02-06T19:00:46.217Z,102283.94
2023-02-06T19:03:50.434Z,102290.44
2023-02-06T19:06:53.446Z,102294.97
2023-02-06T19:10:01.349Z,102297.09
2023-02-06T19:13:04.168Z,102295.50
2023-02-06T19:16:13.448Z,102296.44
2023-02-06T19:19:17.129Z,102292.22
2023-02-06T19:22:20.292Z,102304.38
2023-02-06T19:25:23.241Z,102302.91
2023-02-06T19:28:26.180Z,102306.38
2023-02-06T19:31:32.040Z,102309.66
2023-02-06T19:34:38.057Z,102298.59
2023-02-06T19:37:41.061Z,102306.19
2023-02-06T19:40:46.890Z,102318.06
2023-02-06T19:43:54.832Z,102318.75
2023-02-06T19:46:58.222Z,102327.13
2023-02-06T19:50:01.186Z,102330.59
2023-02-06T19:53:05.735Z,102327.94
2023-02-06T19:56:09.929Z,102328.66
2023-02-06T19:59:18.857Z,102329.97
2023-02-06T20:02:22.267Z,102323.34
2023-02-06T20:05:27.258Z,102336.78
2023-02-06T20:08:30.530Z,102356.13
2023-02-06T20:11:33.945Z,102353.53
2023-02-06T20:14:37.123Z,102359.38
2023-02-06T20:17:40.155Z,102352.53
2023-02-06T20:20:48.474Z,102350.00
2023-02-06T20:23:51.650Z,102357.59
2023-02-06T20:26:58.620Z,102360.44
2023-02-06T20:30:01.560Z,102363.00
2023-02-06T20:33:04.625Z,102357.31
2023-02-06T20:36:17.928Z,102364.06
2023-02-06T20:39:21.497Z,102359.75
2023-02-06T20:42:27.410Z,102366.56
2023-02-06T20:45:30.939Z,102368.34
2023-02-06T20:48:35.494Z,102363.34
2023-02-06T20:51:38.459Z,102366.66
2023-02-06T20:54:41.689Z,102365.84
2023-02-06T20:57:44.970Z,102364.34
2023-02-06T21:00:49.860Z,102366.22
2023-02-06T21:03:55.600Z,102375.50
2023-02-06T21:06:58.457Z,102376.34
2023-02-06T21:10:01.500Z,102374.59
2023-02-06T21:13:04.420Z,102373.16
2023-02-06T21:16:08.374Z,102383.03
2023-02-06T21:19:13.774Z,102384.91
2023-02-06T21:22:16.510Z,102385.94
2023-02-06T21:25:20.613Z,102388.44
2023-02-06T21:28:23.350Z,102384.91
2023-02-06T21:31:34.737Z,102385.78
2023-02-06T21:34:38.865Z,102394.19
2023-02-06T21:37:41.640Z,102391.53
2023-02-06T21:40:45.194Z,102388.97
2023-02-06T21:43:48.024Z,102393.81
2023-02-06T21:46:51.320Z,102401.31
2023-02-06T21:49:54.102Z,102401.31
2023-02-06T21:52:56.851Z,102404.66
2023-02-06T21:55:59.977Z,102419.75
2023-02-06T21:59:02.701Z,102409.56
2023-02-06T22:02:05.418Z,102413.06
2023-02-06T22:05:08.461Z,102415.44
2023-02-06T22:08:11.240Z,102412.97
2023-02-06T22:11:20.555Z,102404.75
2023-02-06T22:14:23.339Z,102414.06
2023-02-06T22:17:26.173Z,102419.94
2023-02-06T22:20:28.928Z,102413.22
2023-02-06T22:23:31.787Z,102419.91
2023-02-06T22:26:38.760Z,102427.56
2023-02-06T22:29:41.711Z,102435.31
2023-02-06T22:32:44.592Z,102432.75
2023-02-06T22:35:47.311Z,102428.59
2023-02-06T22:38:55.687Z,102431.19
2023-02-06T22:41:58.581Z,102435.56
2023-02-06T22:45:01.273Z,102439.75
2023-02-06T22:48:04.340Z,102436.44
2023-02-06T22:51:09.336Z,102438.88
2023-02-06T22:54:13.857Z,102433.56
2023-02-06T22:57:16.577Z,102437.88
2023-02-06T23:00:19.443Z,102440.56
2023-02-06T23:03:22.173Z,102437.16
2023-02-06T23:06:27.759Z,102447.31
2023-02-06T23:09:35.929Z,102436.38
2023-02-06T23:12:38.644Z,102441.50
2023-02-06T23:15:41.681Z,102432.91
2023-02-06T23:18:44.840Z,102433.00
2023-02-06T23:21:50.618Z,102423.88
2023-02-06T23:24:53.786Z,102431.22
2023-02-06T23:27:56.730Z,102435.25
2023-02-06T23:30:59.596Z,102437.84
2023-02-06T23:34:03.401Z,102433.47
2023-02-06T23:37:06.946Z,102428.31
2023-02-06T23:40:10.468Z,102437.16
2023-02-06T23:43:15.239Z,102430.41
2023-02-06T23:46:20.129Z,102432.13
2023-02-06T23:49:23.428Z,102420.28
2023-02-06T23:52:27.171Z,102434.53
2023-02-06T23:55:30.682Z,102441.41
2023-02-06T23:58:33.408Z,102459.91
